sensor_id;sensor_type;location;lat;lon;timestamp;P1;durP1;ratioP1;P2;durP2;ratioP2
20976;SDS011;10647;51.016;3.720;2023-06-19T00:01:55;8.58;;;6.20;;
20976;SDS011;10647;51.016;3.720;2023-06-19T00:04:23;7.60;;;5.65;;
20976;SDS011;10647;51.016;3.720;2023-06-19T00:06:52;8.45;;;5.72;;
20976;SDS011;10647;51.016;3.720;2023-06-19T00:09:20;8.88;;;5.72;;
20976;SDS011;10647;51.016;3.720;2023-06-19T00:11:48;8.95;;;5.35;;
20976;SDS011;10647;51.016;3.720;2023-06-19T00:14:15;6.87;;;5.05;;
20976;SDS011;10647;51.016;3.720;2023-06-19T00:16:43;8.65;;;5.55;;
20976;SDS011;10647;51.016;3.720;2023-06-19T00:19:11;5.80;;;5.03;;
20976;SDS011;10647;51.016;3.720;2023-06-19T00:21:39;8.58;;;5.60;;
20976;SDS011;10647;51.016;3.720;2023-06-19T00:24:09;7.53;;;5.37;;
20976;SDS011;10647;51.016;3.720;2023-06-19T00:26:36;6.53;;;4.90;;
20976;SDS011;10647;51.016;3.720;2023-06-19T00:29:04;7.90;;;5.20;;
20976;SDS011;10647;51.016;3.720;2023-06-19T00:31:32;8.53;;;4.80;;
20976;SDS011;10647;51.016;3.720;2023-06-19T00:34:04;12.65;;;5.40;;
20976;SDS011;10647;51.016;3.720;2023-06-19T00:36:33;6.45;;;4.90;;
20976;SDS011;10647;51.016;3.720;2023-06-19T00:39:06;9.15;;;5.00;;
20976;SDS011;10647;51.016;3.720;2023-06-19T00:41:35;10.10;;;5.30;;
20976;SDS011;10647;51.016;3.720;2023-06-19T00:44:03;7.25;;;4.70;;
20976;SDS011;10647;51.016;3.720;2023-06-19T00:46:30;7.78;;;4.95;;
20976;SDS011;10647;51.016;3.720;2023-06-19T00:48:58;8.25;;;4.90;;
20976;SDS011;10647;51.016;3.720;2023-06-19T00:51:25;8.68;;;5.03;;
20976;SDS011;10647;51.016;3.720;2023-06-19T00:53:54;7.28;;;5.30;;
20976;SDS011;10647;51.016;3.720;2023-06-19T00:56:22;10.35;;;4.92;;
20976;SDS011;10647;51.016;3.720;2023-06-19T00:58:49;5.22;;;4.62;;
20976;SDS011;10647;51.016;3.720;2023-06-19T01:01:19;10.85;;;4.92;;
20976;SDS011;10647;51.016;3.720;2023-06-19T01:03:49;7.30;;;4.87;;
20976;SDS011;10647;51.016;3.720;2023-06-19T01:06:17;8.60;;;4.45;;
20976;SDS011;10647;51.016;3.720;2023-06-19T01:09:02;8.83;;;4.40;;
20976;SDS011;10647;51.016;3.720;2023-06-19T01:11:36;5.83;;;4.87;;
20976;SDS011;10647;51.016;3.720;2023-06-19T01:14:06;12.65;;;7.15;;
20976;SDS011;10647;51.016;3.720;2023-06-19T01:16:34;8.85;;;4.70;;
20976;SDS011;10647;51.016;3.720;2023-06-19T01:19:03;11.95;;;5.45;;
20976;SDS011;10647;51.016;3.720;2023-06-19T01:21:33;7.55;;;4.92;;
20976;SDS011;10647;51.016;3.720;2023-06-19T01:24:02;7.72;;;5.05;;
20976;SDS011;10647;51.016;3.720;2023-06-19T01:26:31;10.03;;;4.92;;
20976;SDS011;10647;51.016;3.720;2023-06-19T01:28:59;8.45;;;4.95;;
20976;SDS011;10647;51.016;3.720;2023-06-19T01:31:30;7.08;;;4.47;;
20976;SDS011;10647;51.016;3.720;2023-06-19T01:33:57;8.53;;;5.00;;
20976;SDS011;10647;51.016;3.720;2023-06-19T01:38:58;6.12;;;4.85;;
20976;SDS011;10647;51.016;3.720;2023-06-19T01:41:26;9.78;;;5.42;;
20976;SDS011;10647;51.016;3.720;2023-06-19T01:43:56;8.20;;;6.87;;
20976;SDS011;10647;51.016;3.720;2023-06-19T01:46:24;8.08;;;6.75;;
20976;SDS011;10647;51.016;3.720;2023-06-19T01:48:52;8.75;;;6.87;;
20976;SDS011;10647;51.016;3.720;2023-06-19T01:51:20;8.78;;;6.70;;
20976;SDS011;10647;51.016;3.720;2023-06-19T01:53:47;9.28;;;7.00;;
20976;SDS011;10647;51.016;3.720;2023-06-19T01:56:15;8.35;;;5.00;;
20976;SDS011;10647;51.016;3.720;2023-06-19T01:58:42;9.75;;;5.17;;
20976;SDS011;10647;51.016;3.720;2023-06-19T02:01:10;5.20;;;3.98;;
20976;SDS011;10647;51.016;3.720;2023-06-19T02:03:37;5.65;;;3.58;;
20976;SDS011;10647;51.016;3.720;2023-06-19T02:06:05;3.50;;;2.83;;
20976;SDS011;10647;51.016;3.720;2023-06-19T02:08:32;3.50;;;2.67;;
20976;SDS011;10647;51.016;3.720;2023-06-19T02:11:00;10.98;;;2.83;;
20976;SDS011;10647;51.016;3.720;2023-06-19T02:13:27;6.15;;;2.37;;
20976;SDS011;10647;51.016;3.720;2023-06-19T02:15:55;3.12;;;2.33;;
20976;SDS011;10647;51.016;3.720;2023-06-19T02:18:22;5.60;;;2.67;;
20976;SDS011;10647;51.016;3.720;2023-06-19T02:20:50;2.90;;;2.35;;
20976;SDS011;10647;51.016;3.720;2023-06-19T02:23:18;3.58;;;2.65;;
20976;SDS011;10647;51.016;3.720;2023-06-19T02:25:45;3.12;;;2.37;;
20976;SDS011;10647;51.016;3.720;2023-06-19T02:28:13;5.33;;;2.90;;
20976;SDS011;10647;51.016;3.720;2023-06-19T02:30:41;4.37;;;3.17;;
20976;SDS011;10647;51.016;3.720;2023-06-19T02:33:09;6.25;;;3.85;;
20976;SDS011;10647;51.016;3.720;2023-06-19T02:35:36;5.75;;;4.35;;
20976;SDS011;10647;51.016;3.720;2023-06-19T02:38:04;7.42;;;4.45;;
20976;SDS011;10647;51.016;3.720;2023-06-19T02:40:31;8.18;;;4.72;;
20976;SDS011;10647;51.016;3.720;2023-06-19T02:42:59;5.17;;;4.25;;
20976;SDS011;10647;51.016;3.720;2023-06-19T02:45:27;6.37;;;4.60;;
20976;SDS011;10647;51.016;3.720;2023-06-19T02:47:55;6.60;;;4.40;;
20976;SDS011;10647;51.016;3.720;2023-06-19T02:50:22;6.53;;;5.40;;
20976;SDS011;10647;51.016;3.720;2023-06-19T02:52:50;13.30;;;5.50;;
20976;SDS011;10647;51.016;3.720;2023-06-19T02:55:17;8.00;;;5.80;;
20976;SDS011;10647;51.016;3.720;2023-06-19T02:57:45;8.93;;;5.58;;
20976;SDS011;10647;51.016;3.720;2023-06-19T03:00:13;8.48;;;6.22;;
20976;SDS011;10647;51.016;3.720;2023-06-19T03:02:41;10.45;;;7.15;;
20976;SDS011;10647;51.016;3.720;2023-06-19T03:05:10;10.25;;;6.28;;
20976;SDS011;10647;51.016;3.720;2023-06-19T03:07:40;9.03;;;6.92;;
20976;SDS011;10647;51.016;3.720;2023-06-19T03:10:08;12.23;;;7.55;;
20976;SDS011;10647;51.016;3.720;2023-06-19T03:12:36;13.68;;;8.93;;
20976;SDS011;10647;51.016;3.720;2023-06-19T03:15:03;12.90;;;8.60;;
20976;SDS011;10647;51.016;3.720;2023-06-19T03:17:31;12.35;;;9.38;;
20976;SDS011;10647;51.016;3.720;2023-06-19T03:19:59;11.10;;;9.13;;
20976;SDS011;10647;51.016;3.720;2023-06-19T03:22:26;15.08;;;8.98;;
20976;SDS011;10647;51.016;3.720;2023-06-19T03:24:54;15.28;;;8.90;;
20976;SDS011;10647;51.016;3.720;2023-06-19T03:27:21;12.35;;;10.10;;
20976;SDS011;10647;51.016;3.720;2023-06-19T03:29:50;13.48;;;10.58;;
20976;SDS011;10647;51.016;3.720;2023-06-19T03:32:19;16.30;;;11.15;;
20976;SDS011;10647;51.016;3.720;2023-06-19T03:34:47;13.58;;;11.25;;
20976;SDS011;10647;51.016;3.720;2023-06-19T03:37:15;17.20;;;11.43;;
20976;SDS011;10647;51.016;3.720;2023-06-19T03:39:43;14.15;;;10.43;;
20976;SDS011;10647;51.016;3.720;2023-06-19T03:42:10;19.98;;;11.55;;
20976;SDS011;10647;51.016;3.720;2023-06-19T03:44:38;15.53;;;11.57;;
20976;SDS011;10647;51.016;3.720;2023-06-19T03:47:06;15.05;;;11.25;;
20976;SDS011;10647;51.016;3.720;2023-06-19T03:49:34;17.55;;;12.20;;
20976;SDS011;10647;51.016;3.720;2023-06-19T03:52:01;20.20;;;12.33;;
20976;SDS011;10647;51.016;3.720;2023-06-19T03:54:30;15.05;;;11.65;;
20976;SDS011;10647;51.016;3.720;2023-06-19T03:56:57;15.95;;;12.18;;
20976;SDS011;10647;51.016;3.720;2023-06-19T03:59:25;16.70;;;13.40;;
20976;SDS011;10647;51.016;3.720;2023-06-19T04:01:53;21.55;;;13.13;;
20976;SDS011;10647;51.016;3.720;2023-06-19T04:04:20;21.15;;;13.30;;
20976;SDS011;10647;51.016;3.720;2023-06-19T04:06:48;17.25;;;12.07;;
20976;SDS011;10647;51.016;3.720;2023-06-19T04:09:16;19.83;;;14.00;;
20976;SDS011;10647;51.016;3.720;2023-06-19T04:11:43;17.55;;;12.50;;
20976;SDS011;10647;51.016;3.720;2023-06-19T04:14:11;19.37;;;13.48;;
20976;SDS011;10647;51.016;3.720;2023-06-19T04:16:39;21.42;;;13.70;;
20976;SDS011;10647;51.016;3.720;2023-06-19T04:19:06;21.87;;;16.15;;
20976;SDS011;10647;51.016;3.720;2023-06-19T04:21:34;22.40;;;17.40;;
20976;SDS011;10647;51.016;3.720;2023-06-19T04:24:01;22.13;;;15.80;;
20976;SDS011;10647;51.016;3.720;2023-06-19T04:26:30;21.07;;;16.60;;
20976;SDS011;10647;51.016;3.720;2023-06-19T04:28:58;24.27;;;16.93;;
20976;SDS011;10647;51.016;3.720;2023-06-19T04:31:26;26.95;;;17.77;;
20976;SDS011;10647;51.016;3.720;2023-06-19T04:33:54;25.43;;;18.07;;
20976;SDS011;10647;51.016;3.720;2023-06-19T04:36:23;26.02;;;17.92;;
20976;SDS011;10647;51.016;3.720;2023-06-19T04:38:50;27.13;;;20.17;;
20976;SDS011;10647;51.016;3.720;2023-06-19T04:41:18;27.27;;;18.32;;
20976;SDS011;10647;51.016;3.720;2023-06-19T04:43:45;26.80;;;19.90;;
20976;SDS011;10647;51.016;3.720;2023-06-19T04:46:13;30.92;;;21.37;;
20976;SDS011;10647;51.016;3.720;2023-06-19T04:48:43;27.70;;;21.37;;
20976;SDS011;10647;51.016;3.720;2023-06-19T04:51:11;27.85;;;19.98;;
20976;SDS011;10647;51.016;3.720;2023-06-19T04:53:38;32.03;;;21.48;;
20976;SDS011;10647;51.016;3.720;2023-06-19T04:56:06;31.50;;;21.00;;
20976;SDS011;10647;51.016;3.720;2023-06-19T04:58:34;28.62;;;19.80;;
20976;SDS011;10647;51.016;3.720;2023-06-19T05:01:01;34.55;;;20.37;;
20976;SDS011;10647;51.016;3.720;2023-06-19T05:03:29;30.37;;;19.95;;
20976;SDS011;10647;51.016;3.720;2023-06-19T05:05:56;28.25;;;20.40;;
20976;SDS011;10647;51.016;3.720;2023-06-19T05:08:24;26.90;;;19.95;;
20976;SDS011;10647;51.016;3.720;2023-06-19T05:10:51;26.65;;;19.55;;
20976;SDS011;10647;51.016;3.720;2023-06-19T05:13:19;27.70;;;19.77;;
20976;SDS011;10647;51.016;3.720;2023-06-19T05:15:46;26.82;;;18.23;;
20976;SDS011;10647;51.016;3.720;2023-06-19T05:18:14;25.70;;;18.80;;
20976;SDS011;10647;51.016;3.720;2023-06-19T05:20:43;24.65;;;17.95;;
20976;SDS011;10647;51.016;3.720;2023-06-19T05:23:11;24.98;;;18.57;;
20976;SDS011;10647;51.016;3.720;2023-06-19T05:25:39;23.98;;;17.27;;
20976;SDS011;10647;51.016;3.720;2023-06-19T05:28:08;31.23;;;18.45;;
20976;SDS011;10647;51.016;3.720;2023-06-19T05:30:37;22.90;;;17.57;;
20976;SDS011;10647;51.016;3.720;2023-06-19T05:33:04;26.97;;;19.73;;
20976;SDS011;10647;51.016;3.720;2023-06-19T05:35:32;26.07;;;19.40;;
20976;SDS011;10647;51.016;3.720;2023-06-19T05:37:59;24.60;;;18.37;;
20976;SDS011;10647;51.016;3.720;2023-06-19T05:40:27;28.95;;;20.45;;
20976;SDS011;10647;51.016;3.720;2023-06-19T05:42:54;30.37;;;20.88;;
20976;SDS011;10647;51.016;3.720;2023-06-19T05:45:22;29.48;;;19.25;;
20976;SDS011;10647;51.016;3.720;2023-06-19T05:47:50;31.15;;;19.37;;
20976;SDS011;10647;51.016;3.720;2023-06-19T05:50:18;29.42;;;19.48;;
20976;SDS011;10647;51.016;3.720;2023-06-19T05:52:45;26.90;;;19.32;;
20976;SDS011;10647;51.016;3.720;2023-06-19T05:55:13;23.90;;;18.27;;
20976;SDS011;10647;51.016;3.720;2023-06-19T05:57:42;26.73;;;17.82;;
20976;SDS011;10647;51.016;3.720;2023-06-19T06:00:11;29.20;;;18.82;;
20976;SDS011;10647;51.016;3.720;2023-06-19T06:02:40;23.15;;;17.90;;
20976;SDS011;10647;51.016;3.720;2023-06-19T06:05:08;22.98;;;17.95;;
20976;SDS011;10647;51.016;3.720;2023-06-19T06:07:37;28.62;;;19.50;;
20976;SDS011;10647;51.016;3.720;2023-06-19T06:10:05;25.75;;;19.27;;
20976;SDS011;10647;51.016;3.720;2023-06-19T06:12:35;30.48;;;20.95;;
20976;SDS011;10647;51.016;3.720;2023-06-19T06:15:03;30.75;;;22.60;;
20976;SDS011;10647;51.016;3.720;2023-06-19T06:17:32;29.07;;;19.20;;
20976;SDS011;10647;51.016;3.720;2023-06-19T06:22:31;26.40;;;18.20;;
20976;SDS011;10647;51.016;3.720;2023-06-19T06:24:59;24.37;;;17.00;;
20976;SDS011;10647;51.016;3.720;2023-06-19T06:27:26;25.17;;;17.70;;
20976;SDS011;10647;51.016;3.720;2023-06-19T06:29:54;23.30;;;16.60;;
20976;SDS011;10647;51.016;3.720;2023-06-19T06:32:23;23.22;;;17.98;;
20976;SDS011;10647;51.016;3.720;2023-06-19T06:34:51;27.50;;;16.52;;
20976;SDS011;10647;51.016;3.720;2023-06-19T06:37:19;23.85;;;16.80;;
20976;SDS011;10647;51.016;3.720;2023-06-19T06:39:48;27.98;;;17.45;;
20976;SDS011;10647;51.016;3.720;2023-06-19T06:42:16;24.72;;;16.65;;
20976;SDS011;10647;51.016;3.720;2023-06-19T06:44:44;24.87;;;16.93;;
20976;SDS011;10647;51.016;3.720;2023-06-19T06:47:12;25.88;;;16.97;;
20976;SDS011;10647;51.016;3.720;2023-06-19T06:49:40;26.27;;;15.68;;
20976;SDS011;10647;51.016;3.720;2023-06-19T06:52:08;22.93;;;15.65;;
20976;SDS011;10647;51.016;3.720;2023-06-19T06:54:35;21.70;;;14.78;;
20976;SDS011;10647;51.016;3.720;2023-06-19T06:57:03;21.20;;;15.05;;
20976;SDS011;10647;51.016;3.720;2023-06-19T06:59:31;21.27;;;15.00;;
20976;SDS011;10647;51.016;3.720;2023-06-19T07:01:58;19.20;;;16.00;;
20976;SDS011;10647;51.016;3.720;2023-06-19T07:04:26;25.57;;;17.77;;
20976;SDS011;10647;51.016;3.720;2023-06-19T07:06:53;23.90;;;19.35;;
20976;SDS011;10647;51.016;3.720;2023-06-19T07:09:21;24.77;;;19.35;;
20976;SDS011;10647;51.016;3.720;2023-06-19T07:11:48;30.25;;;21.15;;
20976;SDS011;10647;51.016;3.720;2023-06-19T07:14:16;26.65;;;18.92;;
20976;SDS011;10647;51.016;3.720;2023-06-19T07:16:44;25.72;;;20.37;;
20976;SDS011;10647;51.016;3.720;2023-06-19T07:19:11;25.75;;;19.77;;
20976;SDS011;10647;51.016;3.720;2023-06-19T07:21:39;30.35;;;20.52;;
20976;SDS011;10647;51.016;3.720;2023-06-19T07:24:08;28.00;;;20.97;;
20976;SDS011;10647;51.016;3.720;2023-06-19T07:26:35;25.55;;;22.67;;
20976;SDS011;10647;51.016;3.720;2023-06-19T07:29:03;31.45;;;21.55;;
20976;SDS011;10647;51.016;3.720;2023-06-19T07:31:30;26.68;;;19.12;;
20976;SDS011;10647;51.016;3.720;2023-06-19T07:33:58;25.15;;;20.30;;
20976;SDS011;10647;51.016;3.720;2023-06-19T07:36:25;21.30;;;18.32;;
20976;SDS011;10647;51.016;3.720;2023-06-19T07:38:53;23.27;;;18.25;;
20976;SDS011;10647;51.016;3.720;2023-06-19T07:41:21;24.37;;;17.98;;
20976;SDS011;10647;51.016;3.720;2023-06-19T07:43:49;20.23;;;16.20;;
20976;SDS011;10647;51.016;3.720;2023-06-19T07:46:16;39.05;;;17.67;;
20976;SDS011;10647;51.016;3.720;2023-06-19T07:48:45;19.70;;;16.40;;
20976;SDS011;10647;51.016;3.720;2023-06-19T07:51:12;19.20;;;15.85;;
20976;SDS011;10647;51.016;3.720;2023-06-19T07:53:40;20.00;;;14.45;;
20976;SDS011;10647;51.016;3.720;2023-06-19T07:56:09;23.15;;;15.38;;
20976;SDS011;10647;51.016;3.720;2023-06-19T07:58:36;22.05;;;16.07;;
20976;SDS011;10647;51.016;3.720;2023-06-19T08:01:04;19.10;;;14.43;;
20976;SDS011;10647;51.016;3.720;2023-06-19T08:03:31;18.73;;;13.65;;
20976;SDS011;10647;51.016;3.720;2023-06-19T08:05:59;20.05;;;13.80;;
20976;SDS011;10647;51.016;3.720;2023-06-19T08:08:26;17.92;;;14.00;;
20976;SDS011;10647;51.016;3.720;2023-06-19T08:10:54;22.62;;;15.38;;
20976;SDS011;10647;51.016;3.720;2023-06-19T08:13:22;16.65;;;13.55;;
20976;SDS011;10647;51.016;3.720;2023-06-19T08:15:49;21.02;;;13.75;;
20976;SDS011;10647;51.016;3.720;2023-06-19T08:18:16;19.17;;;14.90;;
20976;SDS011;10647;51.016;3.720;2023-06-19T08:20:44;16.67;;;13.10;;
20976;SDS011;10647;51.016;3.720;2023-06-19T08:23:11;22.65;;;13.08;;
20976;SDS011;10647;51.016;3.720;2023-06-19T08:25:39;19.92;;;14.03;;
20976;SDS011;10647;51.016;3.720;2023-06-19T08:28:06;20.27;;;13.85;;
20976;SDS011;10647;51.016;3.720;2023-06-19T08:30:34;17.73;;;13.28;;
20976;SDS011;10647;51.016;3.720;2023-06-19T08:33:02;20.20;;;13.10;;
20976;SDS011;10647;51.016;3.720;2023-06-19T08:35:29;21.00;;;12.53;;
20976;SDS011;10647;51.016;3.720;2023-06-19T08:37:58;17.67;;;12.78;;
20976;SDS011;10647;51.016;3.720;2023-06-19T08:40:26;16.50;;;12.25;;
20976;SDS011;10647;51.016;3.720;2023-06-19T08:42:54;14.43;;;11.60;;
20976;SDS011;10647;51.016;3.720;2023-06-19T08:45:22;15.25;;;11.63;;
20976;SDS011;10647;51.016;3.720;2023-06-19T08:47:49;17.62;;;11.88;;
20976;SDS011;10647;51.016;3.720;2023-06-19T08:50:20;17.85;;;12.23;;
20976;SDS011;10647;51.016;3.720;2023-06-19T08:52:47;18.50;;;12.07;;
20976;SDS011;10647;51.016;3.720;2023-06-19T08:55:15;18.23;;;12.78;;
20976;SDS011;10647;51.016;3.720;2023-06-19T08:57:43;17.35;;;12.00;;
20976;SDS011;10647;51.016;3.720;2023-06-19T09:00:10;18.27;;;14.15;;
20976;SDS011;10647;51.016;3.720;2023-06-19T09:02:40;15.25;;;12.68;;
20976;SDS011;10647;51.016;3.720;2023-06-19T09:05:10;16.30;;;12.10;;
20976;SDS011;10647;51.016;3.720;2023-06-19T09:07:39;19.50;;;12.40;;
20976;SDS011;10647;51.016;3.720;2023-06-19T09:10:16;17.75;;;12.25;;
20976;SDS011;10647;51.016;3.720;2023-06-19T09:12:57;20.48;;;13.60;;
20976;SDS011;10647;51.016;3.720;2023-06-19T09:15:31;18.75;;;12.73;;
20976;SDS011;10647;51.016;3.720;2023-06-19T09:20:33;16.55;;;12.23;;
20976;SDS011;10647;51.016;3.720;2023-06-19T09:23:04;16.57;;;12.75;;
20976;SDS011;10647;51.016;3.720;2023-06-19T09:25:32;16.37;;;11.48;;
20976;SDS011;10647;51.016;3.720;2023-06-19T09:28:03;15.60;;;11.53;;
20976;SDS011;10647;51.016;3.720;2023-06-19T09:30:30;20.05;;;11.75;;
20976;SDS011;10647;51.016;3.720;2023-06-19T09:33:05;15.08;;;11.50;;
20976;SDS011;10647;51.016;3.720;2023-06-19T09:35:28;18.32;;;11.80;;
20976;SDS011;10647;51.016;3.720;2023-06-19T09:37:56;16.23;;;11.22;;
20976;SDS011;10647;51.016;3.720;2023-06-19T09:40:25;16.55;;;11.48;;
20976;SDS011;10647;51.016;3.720;2023-06-19T09:42:54;16.42;;;10.98;;
20976;SDS011;10647;51.016;3.720;2023-06-19T09:45:23;14.18;;;10.88;;
20976;SDS011;10647;51.016;3.720;2023-06-19T09:47:52;14.15;;;10.05;;
20976;SDS011;10647;51.016;3.720;2023-06-19T09:50:20;15.65;;;9.78;;
20976;SDS011;10647;51.016;3.720;2023-06-19T09:52:51;19.37;;;11.63;;
20976;SDS011;10647;51.016;3.720;2023-06-19T09:55:20;15.65;;;10.60;;
20976;SDS011;10647;51.016;3.720;2023-06-19T09:57:52;14.75;;;10.30;;
20976;SDS011;10647;51.016;3.720;2023-06-19T10:00:20;18.00;;;10.28;;
20976;SDS011;10647;51.016;3.720;2023-06-19T10:02:49;14.20;;;10.35;;
20976;SDS011;10647;51.016;3.720;2023-06-19T10:05:17;16.45;;;10.50;;
20976;SDS011;10647;51.016;3.720;2023-06-19T10:07:48;16.87;;;10.08;;
20976;SDS011;10647;51.016;3.720;2023-06-19T10:10:22;16.60;;;9.93;;
20976;SDS011;10647;51.016;3.720;2023-06-19T10:12:53;14.00;;;10.48;;
20976;SDS011;10647;51.016;3.720;2023-06-19T10:15:26;13.68;;;9.35;;
20976;SDS011;10647;51.016;3.720;2023-06-19T10:18:02;14.03;;;9.38;;
20976;SDS011;10647;51.016;3.720;2023-06-19T10:20:34;14.13;;;9.10;;
20976;SDS011;10647;51.016;3.720;2023-06-19T10:23:06;10.18;;;8.33;;
20976;SDS011;10647;51.016;3.720;2023-06-19T10:25:45;12.98;;;9.18;;
20976;SDS011;10647;51.016;3.720;2023-06-19T10:28:24;12.80;;;9.60;;
20976;SDS011;10647;51.016;3.720;2023-06-19T10:31:00;14.25;;;9.20;;
20976;SDS011;10647;51.016;3.720;2023-06-19T10:33:34;17.62;;;9.35;;
20976;SDS011;10647;51.016;3.720;2023-06-19T10:36:14;15.23;;;9.75;;
20976;SDS011;10647;51.016;3.720;2023-06-19T10:38:44;13.30;;;9.98;;
20976;SDS011;10647;51.016;3.720;2023-06-19T10:41:18;15.18;;;9.10;;
20976;SDS011;10647;51.016;3.720;2023-06-19T10:44:01;13.38;;;9.15;;
20976;SDS011;10647;51.016;3.720;2023-06-19T10:46:29;15.98;;;10.82;;
20976;SDS011;10647;51.016;3.720;2023-06-19T10:49:02;15.58;;;9.38;;
20976;SDS011;10647;51.016;3.720;2023-06-19T10:51:36;15.20;;;10.65;;
20976;SDS011;10647;51.016;3.720;2023-06-19T10:54:04;14.63;;;8.53;;
20976;SDS011;10647;51.016;3.720;2023-06-19T10:56:34;13.58;;;10.60;;
20976;SDS011;10647;51.016;3.720;2023-06-19T10:59:06;13.72;;;8.63;;
20976;SDS011;10647;51.016;3.720;2023-06-19T11:01:35;10.80;;;7.97;;
20976;SDS011;10647;51.016;3.720;2023-06-19T11:04:10;12.63;;;8.83;;
20976;SDS011;10647;51.016;3.720;2023-06-19T11:06:35;12.73;;;8.60;;
20976;SDS011;10647;51.016;3.720;2023-06-19T11:09:04;11.57;;;8.05;;
20976;SDS011;10647;51.016;3.720;2023-06-19T11:14:13;11.03;;;8.23;;
20976;SDS011;10647;51.016;3.720;2023-06-19T11:16:42;11.83;;;8.53;;
20976;SDS011;10647;51.016;3.720;2023-06-19T11:19:20;12.68;;;8.95;;
20976;SDS011;10647;51.016;3.720;2023-06-19T11:21:52;15.35;;;9.03;;
20976;SDS011;10647;51.016;3.720;2023-06-19T11:24:22;13.70;;;8.30;;
20976;SDS011;10647;51.016;3.720;2023-06-19T11:26:50;13.32;;;8.78;;
20976;SDS011;10647;51.016;3.720;2023-06-19T11:29:26;14.03;;;9.05;;
20976;SDS011;10647;51.016;3.720;2023-06-19T11:31:53;12.90;;;8.93;;
20976;SDS011;10647;51.016;3.720;2023-06-19T11:34:30;15.95;;;10.08;;
20976;SDS011;10647;51.016;3.720;2023-06-19T11:39:44;10.55;;;7.92;;
20976;SDS011;10647;51.016;3.720;2023-06-19T11:42:13;12.18;;;8.73;;
20976;SDS011;10647;51.016;3.720;2023-06-19T11:44:52;10.98;;;8.25;;
20976;SDS011;10647;51.016;3.720;2023-06-19T11:47:20;12.98;;;8.05;;
20976;SDS011;10647;51.016;3.720;2023-06-19T11:49:48;11.68;;;7.78;;
20976;SDS011;10647;51.016;3.720;2023-06-19T11:52:20;8.85;;;6.85;;
20976;SDS011;10647;51.016;3.720;2023-06-19T11:54:49;9.35;;;6.53;;
20976;SDS011;10647;51.016;3.720;2023-06-19T11:57:17;9.85;;;7.70;;
20976;SDS011;10647;51.016;3.720;2023-06-19T11:59:45;9.78;;;7.25;;
20976;SDS011;10647;51.016;3.720;2023-06-19T12:02:12;9.65;;;7.85;;
20976;SDS011;10647;51.016;3.720;2023-06-19T12:04:40;10.70;;;8.48;;
20976;SDS011;10647;51.016;3.720;2023-06-19T12:07:07;12.80;;;8.15;;
20976;SDS011;10647;51.016;3.720;2023-06-19T12:09:35;12.03;;;9.35;;
20976;SDS011;10647;51.016;3.720;2023-06-19T12:12:05;12.60;;;8.45;;
20976;SDS011;10647;51.016;3.720;2023-06-19T12:14:33;10.45;;;8.55;;
20976;SDS011;10647;51.016;3.720;2023-06-19T12:17:01;12.95;;;9.30;;
20976;SDS011;10647;51.016;3.720;2023-06-19T12:19:29;11.28;;;8.63;;
20976;SDS011;10647;51.016;3.720;2023-06-19T12:21:56;10.13;;;6.40;;
20976;SDS011;10647;51.016;3.720;2023-06-19T12:24:24;9.75;;;6.90;;
20976;SDS011;10647;51.016;3.720;2023-06-19T12:26:52;10.98;;;9.30;;
20976;SDS011;10647;51.016;3.720;2023-06-19T12:29:19;11.18;;;9.00;;
20976;SDS011;10647;51.016;3.720;2023-06-19T12:31:47;10.43;;;8.88;;
20976;SDS011;10647;51.016;3.720;2023-06-19T12:34:15;14.33;;;11.00;;
20976;SDS011;10647;51.016;3.720;2023-06-19T12:36:43;12.80;;;9.45;;
20976;SDS011;10647;51.016;3.720;2023-06-19T12:39:11;12.82;;;9.73;;
20976;SDS011;10647;51.016;3.720;2023-06-19T12:41:40;11.35;;;8.73;;
20976;SDS011;10647;51.016;3.720;2023-06-19T12:44:07;11.65;;;7.50;;
20976;SDS011;10647;51.016;3.720;2023-06-19T12:46:35;8.03;;;7.03;;
20976;SDS011;10647;51.016;3.720;2023-06-19T12:49:03;10.85;;;7.70;;
20976;SDS011;10647;51.016;3.720;2023-06-19T12:51:30;9.10;;;6.55;;
20976;SDS011;10647;51.016;3.720;2023-06-19T12:53:58;10.60;;;6.83;;
20976;SDS011;10647;51.016;3.720;2023-06-19T12:56:25;9.53;;;6.58;;
20976;SDS011;10647;51.016;3.720;2023-06-19T12:58:53;7.92;;;6.28;;
20976;SDS011;10647;51.016;3.720;2023-06-19T13:01:20;9.93;;;6.70;;
20976;SDS011;10647;51.016;3.720;2023-06-19T13:03:48;8.68;;;6.70;;
20976;SDS011;10647;51.016;3.720;2023-06-19T13:06:15;9.93;;;6.78;;
20976;SDS011;10647;51.016;3.720;2023-06-19T13:08:44;10.00;;;6.95;;
20976;SDS011;10647;51.016;3.720;2023-06-19T13:11:12;8.73;;;6.17;;
20976;SDS011;10647;51.016;3.720;2023-06-19T13:13:40;9.18;;;4.92;;
20976;SDS011;10647;51.016;3.720;2023-06-19T13:16:07;6.50;;;4.40;;
20976;SDS011;10647;51.016;3.720;2023-06-19T13:18:36;7.28;;;4.03;;
20976;SDS011;10647;51.016;3.720;2023-06-19T13:21:04;8.88;;;4.30;;
20976;SDS011;10647;51.016;3.720;2023-06-19T13:23:31;8.15;;;4.20;;
20976;SDS011;10647;51.016;3.720;2023-06-19T13:25:59;9.03;;;4.42;;
20976;SDS011;10647;51.016;3.720;2023-06-19T13:28:26;6.87;;;4.20;;
20976;SDS011;10647;51.016;3.720;2023-06-19T13:30:54;9.15;;;4.50;;
20976;SDS011;10647;51.016;3.720;2023-06-19T13:33:21;10.18;;;4.33;;
20976;SDS011;10647;51.016;3.720;2023-06-19T13:35:49;5.03;;;4.00;;
20976;SDS011;10647;51.016;3.720;2023-06-19T13:38:17;7.00;;;4.00;;
20976;SDS011;10647;51.016;3.720;2023-06-19T13:40:45;6.47;;;4.87;;
20976;SDS011;10647;51.016;3.720;2023-06-19T13:43:13;6.60;;;4.40;;
20976;SDS011;10647;51.016;3.720;2023-06-19T13:45:41;7.47;;;4.40;;
20976;SDS011;10647;51.016;3.720;2023-06-19T13:48:09;9.30;;;4.55;;
20976;SDS011;10647;51.016;3.720;2023-06-19T13:50:36;7.28;;;4.65;;
20976;SDS011;10647;51.016;3.720;2023-06-19T13:53:04;7.05;;;4.70;;
20976;SDS011;10647;51.016;3.720;2023-06-19T13:55:33;6.20;;;4.37;;
20976;SDS011;10647;51.016;3.720;2023-06-19T13:58:01;5.70;;;4.17;;
20976;SDS011;10647;51.016;3.720;2023-06-19T14:00:28;5.62;;;4.28;;
20976;SDS011;10647;51.016;3.720;2023-06-19T14:02:56;7.87;;;4.35;;
20976;SDS011;10647;51.016;3.720;2023-06-19T14:05:24;6.42;;;4.20;;
20976;SDS011;10647;51.016;3.720;2023-06-19T14:07:53;7.85;;;4.03;;
20976;SDS011;10647;51.016;3.720;2023-06-19T14:10:21;10.55;;;4.58;;
20976;SDS011;10647;51.016;3.720;2023-06-19T14:12:49;7.90;;;4.30;;
20976;SDS011;10647;51.016;3.720;2023-06-19T14:15:17;8.50;;;4.47;;
20976;SDS011;10647;51.016;3.720;2023-06-19T14:17:45;7.90;;;4.40;;
20976;SDS011;10647;51.016;3.720;2023-06-19T14:20:13;5.97;;;4.40;;
20976;SDS011;10647;51.016;3.720;2023-06-19T14:22:42;8.88;;;4.70;;
20976;SDS011;10647;51.016;3.720;2023-06-19T14:25:10;8.30;;;4.62;;
20976;SDS011;10647;51.016;3.720;2023-06-19T14:27:38;5.83;;;4.00;;
20976;SDS011;10647;51.016;3.720;2023-06-19T14:30:06;6.22;;;4.55;;
20976;SDS011;10647;51.016;3.720;2023-06-19T14:32:35;7.20;;;4.30;;
20976;SDS011;10647;51.016;3.720;2023-06-19T14:35:03;6.42;;;4.92;;
20976;SDS011;10647;51.016;3.720;2023-06-19T14:37:31;9.15;;;4.78;;
20976;SDS011;10647;51.016;3.720;2023-06-19T14:39:59;9.88;;;4.62;;
20976;SDS011;10647;51.016;3.720;2023-06-19T14:42:26;8.95;;;4.50;;
20976;SDS011;10647;51.016;3.720;2023-06-19T14:44:54;7.25;;;4.90;;
20976;SDS011;10647;51.016;3.720;2023-06-19T14:47:21;6.12;;;4.90;;
20976;SDS011;10647;51.016;3.720;2023-06-19T14:49:50;7.53;;;4.65;;
20976;SDS011;10647;51.016;3.720;2023-06-19T14:52:21;7.42;;;4.90;;
20976;SDS011;10647;51.016;3.720;2023-06-19T14:54:48;10.18;;;4.70;;